Time;durP1;ratioP1;P1;durP2;ratioP2;P2;SDS_P1;SDS_P2;PMS_P1;PMS_P2;Temp;Humidity;BMP_temperature;BMP_pressure;BME280_temperature;BME280_humidity;BME280_pressure;Samples;Min_cycle;Max_cycle;Signal;HPM_P1;HPM_P2
2023/05/04 00:00:19;;;;;;;9.57;6.80;;;;;;;11.24;68.59;102155.81;5226639;28;20043;-70
2023/05/04 00:02:51;;;;;;;11.65;7.65;;;;;;;11.23;68.28;102157.63;5236564;28;20096;-70
2023/05/04 00:05:22;;;;;;;9.35;7.40;;;;;;;11.27;69.43;102155.63;5236800;28;20120;-70
2023/05/04 00:07:54;;;;;;;9.85;6.97;;;;;;;11.16;68.39;102151.09;5235946;28;20061;-70
2023/05/04 00:10:26;;;;;;;9.07;7.07;;;;;;;11.16;70.25;102141.44;5228216;28;20182;-70
2023/05/04 00:12:58;;;;;;;10.98;7.15;;;;;;;11.17;69.03;102152.75;5235748;28;20025;-70
2023/05/04 00:15:29;;;;;;;8.48;7.00;;;;;;;11.10;69.07;102147.09;5233400;28;20417;-70
2023/05/04 00:18:00;;;;;;;9.18;6.72;;;;;;;11.05;69.68;102140.47;5215211;28;20100;-69
2023/05/04 00:20:32;;;;;;;12.35;6.80;;;;;;;11.01;69.47;102129.34;5234132;28;20950;-70
2023/05/04 00:23:03;;;;;;;11.07;7.50;;;;;;;11.01;70.13;102131.97;5235342;28;20052;-70
2023/05/04 00:25:34;;;;;;;11.00;7.50;;;;;;;10.88;70.41;102116.22;5233803;28;20529;-70
2023/05/04 00:28:06;;;;;;;11.93;7.50;;;;;;;10.90;70.75;102121.34;5235064;28;20087;-69
2023/05/04 00:30:37;;;;;;;10.02;6.45;;;;;;;10.88;70.34;102120.63;5232266;28;20059;-70
2023/05/04 00:33:08;;;;;;;10.43;7.35;;;;;;;10.88;70.53;102112.75;5214995;28;20053;-69
2023/05/04 00:35:40;;;;;;;9.75;6.53;;;;;;;10.80;70.00;102110.63;5237675;28;20040;-69
2023/05/04 00:38:12;;;;;;;9.40;6.82;;;;;;;10.76;71.28;102103.03;5235998;28;20421;-70
2023/05/04 00:40:43;;;;;;;10.38;6.30;;;;;;;10.79;70.93;102106.31;5238532;28;20029;-70
2023/05/04 00:43:15;;;;;;;9.15;6.32;;;;;;;10.77;71.62;102108.22;5236354;28;20107;-70
2023/05/04 00:45:46;;;;;;;8.00;6.30;;;;;;;10.73;71.21;102114.59;5238445;28;20021;-69
2023/05/04 00:48:18;;;;;;;11.38;6.45;;;;;;;10.69;72.29;102113.13;5238169;28;20056;-71
2023/05/04 00:50:49;;;;;;;12.07;7.20;;;;;;;10.71;72.10;102111.22;5240131;28;20572;-69
2023/05/04 00:53:21;;;;;;;11.75;6.93;;;;;;;10.78;73.43;102111.66;5235673;28;20402;-70
2023/05/04 00:55:52;;;;;;;10.07;6.60;;;;;;;10.71;71.61;102105.97;5219815;28;20313;-69
2023/05/04 00:58:24;;;;;;;10.07;6.65;;;;;;;10.66;71.19;102093.19;5238350;28;20053;-69
2023/05/04 01:00:55;;;;;;;7.00;5.93;;;;;;;10.65;72.66;102107.22;5239533;28;20029;-68
2023/05/04 01:03:27;;;;;;;9.10;6.05;;;;;;;10.58;72.90;102100.69;5236164;28;20033;-69
2023/05/04 01:06:04;;;;;;;7.60;6.13;;;;;;;10.73;72.57;102109.34;5237249;28;20029;-69
2023/05/04 01:08:44;;;;;;;11.90;5.90;;;;;;;10.71;73.98;102105.97;5242217;28;20032;-69
2023/05/04 01:11:44;;;;;;;11.82;6.32;;;;;;;10.87;71.11;102105.81;5237327;28;20079;-69
2023/05/04 01:14:19;;;;;;;9.38;6.13;;;;;;;10.56;72.68;102086.00;5239387;28;20036;-69
2023/05/04 01:16:56;;;;;;;9.30;6.35;;;;;;;10.56;73.44;102088.63;5237735;28;20025;-69
2023/05/04 01:19:28;;;;;;;8.55;6.10;;;;;;;10.54;73.36;102085.28;5236699;28;20401;-69
2023/05/04 01:21:59;;;;;;;9.70;6.40;;;;;;;10.45;74.15;102084.94;5236010;28;20057;-68
2023/05/04 01:24:31;;;;;;;8.95;6.22;;;;;;;10.43;73.72;102080.72;5248099;23;20959;-69
2023/05/04 01:27:14;;;;;;;7.70;5.55;;;;;;;10.54;73.50;102083.50;5246905;28;20032;-69
2023/05/04 01:29:54;;;;;;;11.48;6.70;;;;;;;10.46;73.56;102077.91;5231587;28;20032;-69
2023/05/04 01:32:28;;;;;;;9.73;5.97;;;;;;;10.44;74.74;102078.00;5249000;28;20028;-69
2023/05/04 01:35:00;;;;;;;8.93;6.05;;;;;;;10.28;74.33;102072.06;5259359;28;20038;-69
2023/05/04 01:37:31;;;;;;;9.10;6.30;;;;;;;10.28;74.40;102081.72;5255950;28;20416;-69
2023/05/04 01:40:04;;;;;;;10.55;6.13;;;;;;;10.31;74.39;102077.13;5259529;28;20804;-69
2023/05/04 01:42:35;;;;;;;8.48;6.03;;;;;;;10.27;74.95;102072.19;5257320;28;20048;-69
2023/05/04 01:45:07;;;;;;;10.63;5.97;;;;;;;10.29;76.16;102073.75;5261610;28;20257;-69
2023/05/04 01:47:39;;;;;;;8.38;5.95;;;;;;;10.23;76.02;102077.59;5258462;28;20485;-69
2023/05/04 01:50:10;;;;;;;9.77;6.55;;;;;;;10.17;75.39;102072.72;5253025;28;20035;-69
2023/05/04 01:52:42;;;;;;;8.85;6.03;;;;;;;10.12;76.25;102071.34;5257127;28;20051;-70
2023/05/04 01:55:13;;;;;;;12.63;6.88;;;;;;;10.18;76.64;102082.25;5256864;28;20446;-69
2023/05/04 01:57:44;;;;;;;9.95;6.53;;;;;;;10.17;75.72;102077.97;5256380;28;20041;-69
2023/05/04 02:00:16;;;;;;;9.57;6.30;;;;;;;10.11;77.02;102075.72;5259078;28;20142;-70
2023/05/04 02:02:47;;;;;;;8.93;6.45;;;;;;;10.12;76.83;102072.19;5258905;28;20348;-69
2023/05/04 02:05:18;;;;;;;8.98;5.90;;;;;;;10.12;77.52;102072.19;5257387;28;20017;-69
2023/05/04 02:07:49;;;;;;;7.95;5.93;;;;;;;10.08;77.12;102075.09;5258055;28;20051;-69
2023/05/04 02:10:21;;;;;;;10.82;6.85;;;;;;;10.05;78.03;102073.50;5256561;28;20379;-70
2023/05/04 02:12:52;;;;;;;9.40;5.90;;;;;;;10.01;77.55;102081.66;5260183;28;20063;-69
2023/05/04 02:15:23;;;;;;;11.23;7.15;;;;;;;9.98;78.95;102080.91;5255885;28;20095;-69
2023/05/04 02:17:55;;;;;;;9.52;6.80;;;;;;;9.98;78.75;102080.06;5257716;28;20037;-70
2023/05/04 02:20:26;;;;;;;8.88;6.80;;;;;;;9.89;78.35;102076.25;5254852;28;20284;-69
2023/05/04 02:22:57;;;;;;;8.40;6.13;;;;;;;9.98;79.26;102073.03;5255090;28;20116;-69
2023/05/04 02:25:29;;;;;;;9.65;6.38;;;;;;;9.88;79.01;102069.31;5258235;28;20060;-69
2023/05/04 02:28:00;;;;;;;10.23;7.22;;;;;;;9.92;79.85;102062.94;5256736;28;20037;-69
2023/05/04 02:30:32;;;;;;;11.63;6.93;;;;;;;9.91;80.88;102057.81;5258243;28;20020;-69
2023/05/04 02:33:03;;;;;;;9.98;7.30;;;;;;;9.89;80.99;102049.22;5259524;28;20441;-69
2023/05/04 02:35:34;;;;;;;12.38;7.15;;;;;;;9.82;78.93;102051.38;5252333;28;20389;-69
2023/05/04 02:38:05;;;;;;;9.27;6.28;;;;;;;9.81;79.82;102060.19;5232791;28;20567;-69
2023/05/04 02:40:37;;;;;;;10.57;7.18;;;;;;;9.74;80.73;102043.19;5257418;28;20120;-69
2023/05/04 02:43:08;;;;;;;15.65;6.72;;;;;;;9.77;81.49;102055.22;5260089;28;20790;-69
2023/05/04 02:45:39;;;;;;;10.63;6.53;;;;;;;9.72;80.66;102045.88;5256403;28;20454;-70
2023/05/04 02:48:10;;;;;;;10.80;6.80;;;;;;;9.78;81.15;102056.91;5258537;28;20439;-69
2023/05/04 02:50:45;;;;;;;7.53;6.70;;;;;;;9.69;80.99;102055.69;5253537;28;20398;-69
2023/05/04 02:53:16;;;;;;;9.02;7.20;;;;;;;9.71;82.45;102040.75;5257993;28;20082;-69
2023/05/04 02:55:47;;;;;;;9.35;7.30;;;;;;;9.67;81.37;102045.31;5258158;28;20482;-70
2023/05/04 02:58:19;;;;;;;10.23;6.53;;;;;;;9.67;80.92;102049.72;5253809;28;20474;-69
2023/05/04 03:00:54;;;;;;;9.88;6.43;;;;;;;9.66;82.27;102050.63;5256269;28;20663;-69
2023/05/04 03:03:26;;;;;;;10.05;6.95;;;;;;;9.58;82.03;102051.09;5251304;28;20028;-69
2023/05/04 03:05:57;;;;;;;12.43;6.68;;;;;;;9.55;81.62;102056.56;5253706;28;20436;-69
2023/05/04 03:08:29;;;;;;;11.13;6.78;;;;;;;9.50;82.49;102050.75;5255422;28;20021;-69
2023/05/04 03:11:01;;;;;;;13.37;7.63;;;;;;;9.46;82.77;102054.47;5259774;28;20036;-69
2023/05/04 03:13:32;;;;;;;10.70;6.97;;;;;;;9.39;83.81;102053.16;5254762;28;20033;-69
2023/05/04 03:16:04;;;;;;;8.15;6.68;;;;;;;9.40;84.05;102050.47;5258511;28;20068;-68
2023/05/04 03:18:35;;;;;;;8.50;6.78;;;;;;;9.32;84.69;102044.88;5254104;28;20470;-69
2023/05/04 03:21:06;;;;;;;10.85;7.60;;;;;;;9.36;84.85;102042.91;5258303;28;20031;-69
2023/05/04 03:23:38;;;;;;;10.13;7.22;;;;;;;9.33;85.24;102046.53;5257355;28;20032;-68
2023/05/04 03:26:09;;;;;;;7.80;6.72;;;;;;;9.34;85.93;102045.59;5259924;28;20111;-69
2023/05/04 03:28:40;;;;;;;9.95;7.07;;;;;;;9.23;85.55;102034.94;5257910;28;20123;-69
2023/05/04 03:31:12;;;;;;;13.75;7.63;;;;;;;9.23;85.62;102032.31;5258197;28;20040;-69
2023/05/04 03:33:43;;;;;;;11.10;7.22;;;;;;;9.26;86.33;102032.16;5254790;28;20029;-69
2023/05/04 03:36:14;;;;;;;9.80;7.13;;;;;;;9.17;86.15;102025.72;5256475;28;20028;-69
2023/05/04 03:38:46;;;;;;;11.27;7.10;;;;;;;9.18;85.58;102023.94;5237493;28;20087;-70
2023/05/04 03:41:17;;;;;;;10.63;7.32;;;;;;;9.23;87.05;102027.94;5255397;28;20121;-69
2023/05/04 03:43:48;;;;;;;11.75;7.22;;;;;;;9.19;85.84;102021.22;5258081;28;20111;-69
2023/05/04 03:46:20;;;;;;;10.20;6.97;;;;;;;9.17;86.11;102025.72;5258370;28;20108;-70
2023/05/04 03:48:51;;;;;;;7.80;6.75;;;;;;;9.17;88.75;102023.09;5257198;28;20028;-69
2023/05/04 03:51:22;;;;;;;8.05;6.10;;;;;;;9.01;87.74;102011.84;5256447;28;20035;-69
2023/05/04 03:53:53;;;;;;;8.43;6.55;;;;;;;9.02;88.46;102017.00;5255073;28;20029;-69
2023/05/04 03:56:25;;;;;;;9.93;6.80;;;;;;;9.06;89.37;102011.59;5253397;28;20021;-69
2023/05/04 03:58:56;;;;;;;11.75;7.40;;;;;;;9.02;88.44;102011.78;5237329;28;20047;-69
2023/05/04 04:01:27;;;;;;;12.63;6.47;;;;;;;9.04;89.03;102008.22;5257380;28;20371;-69
2023/05/04 04:03:58;;;;;;;9.40;6.82;;;;;;;9.03;89.12;102015.22;5254123;28;20430;-69
2023/05/04 04:06:30;;;;;;;8.10;6.82;;;;;;;9.01;88.22;102014.47;5255805;28;20484;-68
2023/05/04 04:09:02;;;;;;;10.73;7.03;;;;;;;8.95;89.80;102013.06;5255618;28;20460;-69
2023/05/04 04:11:33;;;;;;;8.70;6.80;;;;;;;8.93;89.80;102016.69;5255336;28;20033;-70
2023/05/04 04:14:05;;;;;;;10.70;6.90;;;;;;;8.94;90.00;102018.38;5256945;28;20033;-69
2023/05/04 04:16:36;;;;;;;9.05;7.10;;;;;;;8.92;89.36;102012.41;5257814;28;20030;-69
2023/05/04 04:19:07;;;;;;;11.57;7.63;;;;;;;8.90;90.06;102009.03;5235293;28;20036;-68
2023/05/04 04:21:39;;;;;;;12.35;7.85;;;;;;;8.90;91.17;102006.41;5252128;28;20042;-69
2023/05/04 04:24:10;;;;;;;8.57;7.13;;;;;;;8.84;90.36;102007.63;5256607;28;20414;-68
2023/05/04 04:26:42;;;;;;;10.20;6.75;;;;;;;8.84;90.40;102004.19;5257557;28;20047;-69
2023/05/04 04:29:13;;;;;;;10.77;7.13;;;;;;;8.86;91.65;101997.06;5252969;28;20032;-69
2023/05/04 04:31:44;;;;;;;11.50;6.97;;;;;;;8.90;90.64;101991.59;5255231;28;20493;-69
2023/05/04 04:34:16;;;;;;;11.55;7.30;;;;;;;8.83;90.90;101994.66;5257355;28;20497;-69
2023/05/04 04:36:48;;;;;;;9.63;7.55;;;;;;;8.78;91.21;101984.47;5256250;28;20409;-68
2023/05/04 04:39:19;;;;;;;12.27;7.10;;;;;;;8.87;92.07;101994.41;5254849;28;20033;-69
2023/05/04 04:41:51;;;;;;;11.20;7.10;;;;;;;8.86;91.21;101991.84;5250725;28;20772;-69
2023/05/04 04:44:22;;;;;;;8.75;7.18;;;;;;;8.78;91.28;101994.91;5258779;28;20120;-69
2023/05/04 04:46:54;;;;;;;10.20;6.75;;;;;;;8.83;92.48;101997.28;5257169;28;20477;-68
2023/05/04 04:49:26;;;;;;;9.38;7.10;;;;;;;8.88;93.42;101993.44;5260094;28;20060;-69
2023/05/04 04:51:57;;;;;;;10.63;7.07;;;;;;;8.95;92.93;101988.72;5256616;28;20104;-69
2023/05/04 04:54:28;;;;;;;11.25;7.15;;;;;;;9.00;91.55;101997.09;5258133;28;20060;-69
2023/05/04 04:57:00;;;;;;;8.23;6.72;;;;;;;9.00;91.44;101991.88;5254213;28;20032;-69
2023/05/04 04:59:31;;;;;;;11.52;6.70;;;;;;;9.02;90.62;101997.88;5253032;28;20045;-69
2023/05/04 05:02:03;;;;;;;9.63;6.28;;;;;;;9.02;90.86;101988.25;5253802;28;21361;-68
2023/05/04 05:04:37;;;;;;;8.70;6.57;;;;;;;9.12;91.46;101995.53;5254800;28;20092;-69
2023/05/04 05:07:09;;;;;;;7.55;6.18;;;;;;;9.15;91.59;101995.34;5252559;28;20625;-69
2023/05/04 05:09:41;;;;;;;12.57;6.63;;;;;;;9.16;90.35;102004.88;5260677;28;20044;-68
2023/05/04 05:12:12;;;;;;;8.02;6.10;;;;;;;9.22;90.08;101997.50;5255615;28;20032;-69
2023/05/04 05:14:44;;;;;;;8.77;6.93;;;;;;;9.26;90.04;101996.38;5254287;28;20477;-69
2023/05/04 05:17:16;;;;;;;9.07;7.20;;;;;;;9.29;90.04;101997.97;5257597;28;20024;-68
2023/05/04 05:19:48;;;;;;;12.38;7.05;;;;;;;9.33;90.78;101998.63;5256370;28;20032;-68
2023/05/04 05:22:20;;;;;;;10.32;6.45;;;;;;;9.37;89.09;102000.13;5258962;28;20025;-69
2023/05/04 05:24:51;;;;;;;9.27;6.32;;;;;;;9.37;88.81;101998.34;5262007;28;20040;-68
2023/05/04 05:27:22;;;;;;;10.57;6.88;;;;;;;9.42;89.15;101998.06;5260238;28;20033;-69
2023/05/04 05:29:53;;;;;;;10.35;7.00;;;;;;;9.41;88.32;102004.22;5256703;28;20035;-70
2023/05/04 05:32:25;;;;;;;9.07;6.03;;;;;;;9.49;89.61;101997.59;5254463;28;20101;-69
2023/05/04 05:34:56;;;;;;;10.63;6.53;;;;;;;9.52;88.96;101993.94;5261776;28;20127;-69
2023/05/04 05:37:28;;;;;;;9.80;6.85;;;;;;;9.56;87.77;101999.81;5260622;28;20128;-69
2023/05/04 05:39:59;;;;;;;8.77;7.22;;;;;;;9.62;88.62;102004.66;5254384;28;20307;-70
2023/05/04 05:42:31;;;;;;;9.20;5.97;;;;;;;9.73;88.48;102008.28;5256961;28;20857;-69
2023/05/04 05:45:03;;;;;;;9.98;6.53;;;;;;;9.81;86.99;102009.59;5258216;28;20087;-69
2023/05/04 05:47:35;;;;;;;8.27;5.40;;;;;;;9.87;85.74;102001.34;5260119;28;20032;-69
2023/05/04 05:50:07;;;;;;;7.90;6.18;;;;;;;9.95;87.41;101992.06;5262411;28;20029;-69
2023/05/04 05:52:38;;;;;;;8.52;6.25;;;;;;;9.99;85.96;101990.94;5258376;28;20474;-69
2023/05/04 05:55:10;;;;;;;8.43;6.55;;;;;;;10.09;86.37;101998.22;5253504;28;20032;-69
2023/05/04 05:57:42;;;;;;;8.32;6.00;;;;;;;10.10;83.01;101995.50;5244994;28;20064;-69
2023/05/04 06:00:13;;;;;;;10.38;5.85;;;;;;;10.21;84.83;101998.25;5259267;28;20041;-69
2023/05/04 06:02:45;;;;;;;9.48;6.18;;;;;;;10.27;82.14;101991.00;5254660;28;20029;-69
2023/05/04 06:05:16;;;;;;;10.80;6.22;;;;;;;10.28;82.56;101985.63;5258221;28;20100;-69
2023/05/04 06:07:47;;;;;;;9.45;6.45;;;;;;;10.43;82.94;101991.66;5253263;28;20108;-69
2023/05/04 06:10:19;;;;;;;8.75;6.00;;;;;;;10.44;82.13;101983.69;5258936;28;20035;-69
2023/05/04 06:12:50;;;;;;;8.77;5.53;;;;;;;10.50;82.10;101971.97;5231842;28;20024;-69
2023/05/04 06:15:21;;;;;;;9.30;6.30;;;;;;;10.62;83.12;101981.63;5258298;28;20025;-70
2023/05/04 06:17:53;;;;;;;12.52;6.47;;;;;;;10.68;81.70;101969.88;5254286;28;20017;-69
2023/05/04 06:20:24;;;;;;;10.98;6.22;;;;;;;10.84;81.56;101965.31;5258794;28;20060;-69
2023/05/04 06:22:56;;;;;;;12.68;6.03;;;;;;;10.95;80.10;101967.19;5248871;28;20534;-69
2023/05/04 06:25:27;;;;;;;9.20;6.05;;;;;;;10.99;78.88;101962.59;5253304;28;20112;-68
2023/05/04 06:27:58;;;;;;;11.75;6.13;;;;;;;11.07;79.33;101949.78;5252284;28;20032;-69
2023/05/04 06:30:29;;;;;;;12.65;6.28;;;;;;;11.20;78.77;101950.59;5257691;28;20146;-69
2023/05/04 06:33:01;;;;;;;11.15;6.10;;;;;;;11.34;78.44;101955.72;5259104;28;20522;-68
2023/05/04 06:35:33;;;;;;;9.40;6.38;;;;;;;11.49;79.20;101950.34;5252301;28;20047;-69
2023/05/04 06:38:04;;;;;;;10.10;5.57;;;;;;;11.55;75.19;101948.09;5255361;28;20398;-70
2023/05/04 06:40:35;;;;;;;8.27;5.68;;;;;;;11.68;75.25;101943.66;5256541;28;20049;-69
2023/05/04 06:43:07;;;;;;;10.63;6.50;;;;;;;11.75;73.12;101946.69;5240258;28;20444;-69
2023/05/04 06:45:38;;;;;;;8.93;6.18;;;;;;;11.96;74.54;101936.44;5238662;28;20049;-69
2023/05/04 06:48:10;;;;;;;10.02;5.95;;;;;;;12.06;73.97;101945.31;5255719;28;20036;-69
2023/05/04 06:50:41;;;;;;;7.80;5.37;;;;;;;12.09;70.76;101942.47;5258960;28;20374;-69
2023/05/04 06:53:13;;;;;;;11.75;5.82;;;;;;;12.24;71.32;101940.50;5261777;28;20032;-71
2023/05/04 06:55:44;;;;;;;15.13;5.68;;;;;;;12.28;69.67;101941.13;5259146;28;20028;-69
2023/05/04 06:58:18;;;;;;;10.32;5.53;;;;;;;12.38;68.72;101937.66;5253879;28;20062;-68
2023/05/04 07:00:50;;;;;;;9.80;5.32;;;;;;;12.48;68.75;101935.19;5251673;28;20029;-68
2023/05/04 07:03:21;;;;;;;9.23;5.38;;;;;;;12.62;68.80;101929.72;5253709;28;20036;-68
2023/05/04 07:05:52;;;;;;;10.23;6.00;;;;;;;12.66;66.88;101928.53;5258568;28;20020;-69
2023/05/04 07:08:24;;;;;;;8.43;5.50;;;;;;;12.74;66.42;101935.84;5236951;28;20946;-68
2023/05/04 07:10:55;;;;;;;9.35;5.82;;;;;;;12.91;67.48;101924.00;5254960;28;20409;-68
2023/05/04 07:13:27;;;;;;;8.43;5.30;;;;;;;12.99;66.86;101918.16;5256469;28;20029;-69
2023/05/04 07:15:58;;;;;;;12.43;5.55;;;;;;;13.10;65.52;101913.72;5259246;28;20029;-69
2023/05/04 07:18:30;;;;;;;10.95;5.70;;;;;;;13.23;65.53;101921.53;5254769;28;20036;-68
2023/05/04 07:21:01;;;;;;;8.57;5.20;;;;;;;13.41;64.20;101914.00;5258319;28;20040;-69
2023/05/04 07:23:32;;;;;;;9.40;5.32;;;;;;;13.57;64.08;101910.97;5263067;22;20065;-70
2023/05/04 07:26:05;;;;;;;11.90;6.07;;;;;;;13.82;63.50;101910.63;5235868;28;20065;-70
2023/05/04 07:28:37;;;;;;;7.53;5.25;;;;;;;13.85;63.42;101906.91;5236791;28;20041;-70
2023/05/04 07:31:11;;;;;;;10.85;5.10;;;;;;;14.06;62.14;101913.06;5235609;28;20470;-70
2023/05/04 07:33:43;;;;;;;10.90;6.68;;;;;;;14.24;60.08;101907.22;5233311;28;20033;-70
2023/05/04 07:36:14;;;;;;;10.45;5.35;;;;;;;14.34;60.22;101901.03;5233471;28;20082;-71
2023/05/04 07:38:45;;;;;;;11.13;4.97;;;;;;;14.36;58.35;101909.69;5234756;28;20276;-71
2023/05/04 07:41:16;;;;;;;8.80;4.63;;;;;;;14.48;57.90;101904.34;5235649;28;20064;-70
2023/05/04 07:43:48;;;;;;;10.45;5.30;;;;;;;14.57;58.87;101906.22;5237323;28;20508;-70
2023/05/04 07:46:19;;;;;;;7.25;5.10;;;;;;;14.66;57.67;101902.81;5235573;28;20544;-70
2023/05/04 07:48:50;;;;;;;6.22;4.53;;;;;;;14.75;57.12;101888.00;5236213;28;20071;-70
2023/05/04 07:51:21;;;;;;;10.18;5.47;;;;;;;14.78;55.89;101906.19;5235300;28;20095;-70
2023/05/04 07:53:53;;;;;;;7.43;5.03;;;;;;;14.99;56.18;101900.84;5239685;28;20039;-70
2023/05/04 07:56:24;;;;;;;7.95;4.95;;;;;;;15.24;56.46;101905.69;5236868;28;20040;-71
2023/05/04 07:58:55;;;;;;;9.02;5.60;;;;;;;15.29;54.58;101902.63;5234649;28;20040;-70
2023/05/04 08:01:27;;;;;;;10.88;5.03;;;;;;;15.45;54.60;101899.47;5236759;28;20236;-70
2023/05/04 08:03:58;;;;;;;10.68;5.57;;;;;;;15.49;53.11;101895.56;5237409;28;20090;-71
2023/05/04 08:06:29;;;;;;;7.53;4.90;;;;;;;15.74;52.73;101895.09;5233637;28;20406;-70
2023/05/04 08:09:00;;;;;;;8.20;4.75;;;;;;;16.04;55.13;101890.66;5232181;28;20035;-71
2023/05/04 08:11:33;;;;;;;11.05;4.60;;;;;;;16.14;51.20;101886.19;5233191;28;20033;-70
2023/05/04 08:14:04;;;;;;;8.70;5.10;;;;;;;16.29;50.82;101889.22;5236272;28;20755;-70
2023/05/04 08:16:38;;;;;;;7.88;4.55;;;;;;;16.39;51.63;101879.44;5235521;28;20111;-70
2023/05/04 08:19:11;;;;;;;9.35;5.30;;;;;;;16.31;50.76;101881.97;5234992;28;20116;-70
2023/05/04 08:21:42;;;;;;;5.97;5.00;;;;;;;16.45;51.01;101878.88;5231079;28;20033;-70
2023/05/04 08:24:15;;;;;;;7.10;4.72;;;;;;;16.51;51.97;101878.28;5232301;28;20037;-72
2023/05/04 08:26:46;;;;;;;9.68;5.22;;;;;;;16.57;50.33;101879.53;5235870;28;20040;-71
2023/05/04 08:29:17;;;;;;;7.15;5.60;;;;;;;16.53;49.43;101870.22;5235446;28;20033;-70
2023/05/04 08:31:49;;;;;;;11.02;5.20;;;;;;;16.68;49.12;101863.50;5234502;28;20063;-71
2023/05/04 08:34:20;;;;;;;7.93;4.88;;;;;;;16.88;49.31;101864.28;5235885;28;20048;-71
2023/05/04 08:36:51;;;;;;;11.30;4.90;;;;;;;17.02;49.84;101869.09;5234405;28;20470;-72
2023/05/04 08:39:23;;;;;;;6.57;4.97;;;;;;;17.05;48.43;101860.03;5233642;28;20025;-70
2023/05/04 08:41:54;;;;;;;10.85;5.15;;;;;;;17.25;48.43;101858.91;5225877;28;20033;-70
2023/05/04 08:44:25;;;;;;;9.65;5.70;;;;;;;17.33;48.21;101846.75;5236490;28;20029;-71
2023/05/04 08:46:56;;;;;;;7.15;5.22;;;;;;;17.35;47.58;101850.94;5227867;28;20049;-70
2023/05/04 08:49:29;;;;;;;9.85;5.35;;;;;;;17.51;47.26;101844.94;5234378;28;20025;-69
2023/05/04 08:52:06;;;;;;;9.45;5.40;;;;;;;17.82;47.75;101837.47;5231718;28;20045;-70
2023/05/04 08:54:38;;;;;;;10.50;5.63;;;;;;;17.94;47.71;101827.44;5225040;28;20513;-70
2023/05/04 08:57:11;;;;;;;8.60;4.87;;;;;;;18.07;46.04;101819.06;5235488;28;20021;-71
2023/05/04 08:59:47;;;;;;;6.93;4.45;;;;;;;18.29;46.06;101823.88;5238079;28;20036;-70
2023/05/04 09:02:21;;;;;;;7.50;4.30;;;;;;;18.39;45.77;101811.34;5235144;28;20481;-70
2023/05/04 09:04:53;;;;;;;7.63;5.32;;;;;;;18.53;45.64;101809.09;5237979;28;20033;-72
2023/05/04 09:07:24;;;;;;;6.50;4.95;;;;;;;18.56;47.20;101812.25;5236820;28;20397;-72
2023/05/04 09:09:56;;;;;;;8.60;5.28;;;;;;;18.59;45.92;101819.06;5241757;28;20518;-71
2023/05/04 09:12:27;;;;;;;10.97;4.80;;;;;;;18.65;44.44;101819.25;5239574;28;20040;-70
2023/05/04 09:15:00;;;;;;;6.68;4.32;;;;;;;18.77;44.72;101809.22;5240247;28;20573;-71
2023/05/04 09:17:32;;;;;;;6.13;4.35;;;;;;;18.92;44.21;101806.78;5240345;28;20026;-70
2023/05/04 09:20:03;;;;;;;8.02;4.80;;;;;;;19.13;44.64;101807.19;5241827;28;20528;-71
2023/05/04 09:22:35;;;;;;;6.80;3.88;;;;;;;19.30;43.87;101810.69;5238972;28;20033;-70
2023/05/04 09:25:09;;;;;;;6.35;4.32;;;;;;;19.45;42.83;101809.03;5237953;28;20042;-71
2023/05/04 09:27:52;;;;;;;7.63;4.80;;;;;;;19.59;42.88;101807.56;5241551;28;20600;-72
2023/05/04 09:30:24;;;;;;;8.63;4.85;;;;;;;19.66;42.27;101807.72;5238040;28;20779;-71
2023/05/04 09:32:56;;;;;;;6.22;4.95;;;;;;;19.75;42.13;101803.28;5237913;28;20036;-71
2023/05/04 09:35:28;;;;;;;8.68;4.32;;;;;;;19.86;42.83;101800.28;5239323;28;20056;-71
2023/05/04 09:38:00;;;;;;;;;;;;;;;20.54;42.70;101797.13;5236733;28;20390;-71
2023/05/04 09:40:34;;;;;;;8.63;4.60;;;;;;;20.10;41.70;101794.91;5234149;28;19924;-71
2023/05/04 09:43:07;;;;;;;8.55;4.88;;;;;;;20.15;41.47;101802.38;5241958;28;20444;-71
2023/05/04 09:45:45;;;;;;;11.65;5.13;;;;;;;20.17;41.66;101792.41;5242275;28;20363;-72
2023/05/04 09:48:24;;;;;;;8.82;5.05;;;;;;;20.33;41.93;101800.31;5232186;28;20036;-72
2023/05/04 09:51:01;;;;;;;7.28;4.55;;;;;;;20.35;40.67;101786.88;5239724;28;20025;-71
2023/05/04 09:53:38;;;;;;;9.45;5.15;;;;;;;20.63;41.49;101784.63;5238591;28;20024;-71
2023/05/04 09:56:24;;;;;;;5.30;4.57;;;;;;;20.80;40.45;101796.03;5237635;28;20025;-72
2023/05/04 09:58:58;;;;;;;6.93;5.10;;;;;;;20.61;39.15;101790.13;5237457;28;20092;-72
2023/05/04 10:01:30;;;;;;;10.77;5.03;;;;;;;20.83;39.98;101775.19;5239961;28;20079;-71
2023/05/04 10:04:03;;;;;;;8.07;4.72;;;;;;;21.03;39.48;101775.59;5240752;28;20032;-71
2023/05/04 10:06:34;;;;;;;7.68;5.10;;;;;;;21.19;39.95;101771.16;5238819;28;20517;-72
2023/05/04 10:09:06;;;;;;;8.53;4.47;;;;;;;21.41;39.23;101767.69;5237051;28;20078;-71
2023/05/04 10:11:38;;;;;;;6.45;4.70;;;;;;;21.43;38.28;101754.16;5235034;28;20083;-71
2023/05/04 10:14:09;;;;;;;6.57;4.17;;;;;;;21.44;39.26;101745.16;5239109;28;20148;-72
2023/05/04 10:17:16;;;;;;;11.60;5.20;;;;;;;22.03;38.83;101740.75;5238786;28;20022;-71
2023/05/04 10:20:23;;;;;;;7.80;5.18;;;;;;;22.04;38.56;101734.38;5228706;28;20045;-71
2023/05/04 10:23:29;;;;;;;8.32;5.35;;;;;;;22.43;38.33;101719.97;5213056;28;20509;-71
2023/05/04 10:26:28;;;;;;;12.60;5.53;;;;;;;22.55;38.57;101712.28;5240081;28;20045;-71
2023/05/04 10:29:22;;;;;;;8.80;5.28;;;;;;;22.54;38.06;101710.59;5235522;28;20461;-71
2023/05/04 10:31:53;;;;;;;;;;;;;;;22.88;37.01;101704.63;5238740;28;20029;-71
2023/05/04 10:34:32;;;;;;;11.63;4.95;;;;;;;22.42;36.94;101706.78;5237573;28;19921;-72
2023/05/04 10:37:15;;;;;;;6.90;4.50;;;;;;;22.54;37.32;101702.59;5253630;28;20033;-73
2023/05/04 10:39:53;;;;;;;6.40;4.60;;;;;;;22.64;36.71;101688.94;5237245;28;20048;-71
2023/05/04 10:42:25;;;;;;;8.50;5.30;;;;;;;22.56;36.58;101682.72;5237300;28;20040;-71
2023/05/04 10:44:56;;;;;;;7.47;5.00;;;;;;;22.58;36.54;101680.69;5235868;28;20402;-71
2023/05/04 10:47:31;;;;;;;8.10;5.03;;;;;;;22.73;35.45;101674.44;5234073;28;20471;-71
2023/05/04 10:50:07;;;;;;;9.68;5.20;;;;;;;22.85;35.50;101664.94;5238670;28;20029;-73
2023/05/04 10:52:49;;;;;;;7.05;4.72;;;;;;;23.32;37.71;101655.47;5237414;28;20037;-72
2023/05/04 10:55:21;;;;;;;6.43;5.07;;;;;;;23.03;35.84;101653.78;5235410;28;20123;-72
2023/05/04 10:57:55;;;;;;;6.50;4.70;;;;;;;23.16;34.78;101655.78;5238707;28;20116;-71
2023/05/04 11:00:55;;;;;;;8.68;4.50;;;;;;;23.59;35.61;101634.25;5234945;28;20053;-72
2023/05/04 11:03:37;;;;;;;7.38;4.35;;;;;;;23.59;35.30;101639.59;5232771;28;20094;-72
2023/05/04 11:06:21;;;;;;;7.33;4.43;;;;;;;23.70;35.04;101639.09;5234807;28;20059;-72
2023/05/04 11:09:01;;;;;;;6.60;4.53;;;;;;;23.68;34.87;101633.94;5235397;28;20538;-73
2023/05/04 11:11:36;;;;;;;9.70;4.70;;;;;;;23.55;34.40;101634.66;5233321;28;20020;-72
2023/05/04 11:14:09;;;;;;;7.47;4.28;;;;;;;23.63;35.16;101632.84;5233338;28;20044;-72
2023/05/04 11:16:40;;;;;;;8.65;4.57;;;;;;;23.69;33.58;101624.88;5233701;28;20078;-72
2023/05/04 11:19:12;;;;;;;9.20;4.50;;;;;;;23.95;33.30;101624.19;5234048;28;20041;-72
2023/05/04 11:21:43;;;;;;;6.53;4.33;;;;;;;24.08;33.91;101625.25;5231970;28;20031;-72
2023/05/04 11:24:14;;;;;;;7.47;4.00;;;;;;;23.92;33.83;101613.06;5239660;28;20041;-71
2023/05/04 11:26:47;;;;;;;6.07;4.00;;;;;;;24.18;33.05;101612.34;5230462;28;20135;-71
2023/05/04 11:29:19;;;;;;;5.32;3.92;;;;;;;24.10;32.67;101604.47;5236972;28;20026;-72
2023/05/04 11:31:54;;;;;;;4.60;3.60;;;;;;;24.28;33.89;101618.97;5235187;28;20025;-71
2023/05/04 11:34:26;;;;;;;5.22;3.58;;;;;;;24.23;32.74;101617.91;5235520;28;20057;-71
2023/05/04 11:36:58;;;;;;;5.68;4.00;;;;;;;24.28;32.22;101618.97;5233581;28;20087;-71
2023/05/04 11:39:31;;;;;;;6.67;4.03;;;;;;;24.32;32.69;101618.53;5237502;28;20115;-71
2023/05/04 11:42:06;;;;;;;5.57;3.95;;;;;;;24.41;32.30;101604.78;5231050;28;20033;-71
2023/05/04 11:44:38;;;;;;;5.57;3.70;;;;;;;24.68;32.44;101602.97;5229298;28;20045;-71
2023/05/04 11:47:10;;;;;;;4.83;4.30;;;;;;;24.57;32.35;101606.25;5230856;28;21914;-71
2023/05/04 11:49:44;;;;;;;7.00;4.13;;;;;;;24.77;32.89;101584.81;5238322;28;20481;-71